Time;durP1;ratioP1;P1;durP2;ratioP2;P2;SDS_P1;SDS_P2;PMS_P1;PMS_P2;Temp;Humidity;BMP_temperature;BMP_pressure;BME280_temperature;BME280_humidity;BME280_pressure;Samples;Min_cycle;Max_cycle;Signal;HPM_P1;HPM_P2
2023/04/22 00:03:39;;;;;;;;;;;;;;;;;;;;;
2023/04/22 00:09:29;;;;;;;13.10;6.72;;;;;;;;;;4992930;28;20037;-72
2023/04/22 00:11:54;;;;;;;11.85;7.72;;;;;;;;;;4993258;28;20026;-73
2023/04/22 00:14:49;;;;;;;;;;;;;;;;;;;;;
2023/04/22 00:17:31;;;;;;;10.38;6.65;;;;;;;;;;5012588;28;20516;-74
2023/04/22 00:24:27;;;;;;;;;;;;;;;;;;;;;
2023/04/22 00:27:36;;;;;;;13.93;6.25;;;;;;;;;;4948725;28;20050;-73
2023/04/22 00:34:11;;;;;;;11.75;6.97;;;;;;;;;;4952407;29;20054;-73
2023/04/22 01:02:22;;;;;;;13.15;6.75;;;;;;;;;;5074944;22;20053;-72
2023/04/22 01:05:20;;;;;;;15.02;7.18;;;;;;;;;;5016043;28;20038;-73
2023/04/22 01:09:15;;;;;;;19.55;7.18;;;;;;;;;;5015099;28;20116;-73
2023/04/22 01:15:16;;;;;;;13.35;6.68;;;;;;;;;;5004887;28;20034;-73
2023/04/22 01:21:46;;;;;;;;;;;;;;;;;;;;;
2023/04/22 01:24:45;;;;;;;;;;;;;;;;;;;;;
2023/04/22 01:27:11;;;;;;;10.13;6.88;;;;;;;;;;5015485;28;20024;-72
2023/04/22 01:29:37;;;;;;;12.00;6.85;;;;;;;;;;5015590;28;20105;-73
2023/04/22 01:32:03;;;;;;;10.82;6.85;;;;;;;;;;5015606;28;20104;-72
2023/04/22 01:34:30;;;;;;;11.20;6.90;;;;;;;;;;5015298;28;20481;-75
2023/04/22 01:36:55;;;;;;;12.57;7.10;;;;;;;;;;5015572;28;20026;-74
2023/04/22 01:39:20;;;;;;;13.95;7.15;;;;;;;;;;5015388;28;20072;-72
2023/04/22 01:41:46;;;;;;;12.38;7.05;;;;;;;;;;5015572;28;20557;-73
2023/04/22 02:05:52;;;;;;;13.18;6.63;;;;;;;;;;5014895;28;20030;-73
2023/04/22 02:09:23;;;;;;;14.60;7.03;;;;;;;;;;5014715;28;20054;-73
2023/04/22 02:15:22;;;;;;;8.82;6.40;;;;;;;;;;5014555;28;20393;-72
2023/04/22 02:21:12;;;;;;;13.50;7.00;;;;;;;;;;4986351;28;20036;-74
2023/04/22 02:27:07;;;;;;;10.98;6.72;;;;;;;;;;5020801;22;20042;-73
2023/04/22 02:29:30;;;;;;;10.45;7.30;;;;;;;;;;5013846;28;20095;-73
2023/04/22 02:31:56;;;;;;;11.15;6.88;;;;;;;;;;5013111;28;20022;-74
2023/04/22 02:42:18;;;;;;;11.55;6.95;;;;;;;;;;5014699;28;20084;-74
2023/04/22 02:48:16;;;;;;;11.98;6.75;;;;;;;;;;5003289;28;20061;-74
2023/04/22 02:51:22;;;;;;;13.13;6.80;;;;;;;;;;5007535;28;20084;-74
2023/04/22 02:55:12;;;;;;;8.30;6.05;;;;;;;;;;5013848;28;20022;-73
2023/04/22 02:57:55;;;;;;;;;;;;;;;;;;;;;
2023/04/22 03:07:53;;;;;;;13.57;6.72;;;;;;;;;;4933508;29;20039;-74
2023/04/22 03:13:48;;;;;;;11.35;7.20;;;;;;;;;;4966605;28;20040;-80
2023/04/22 03:17:06;;;;;;;11.73;6.30;;;;;;;;;;5013987;28;20462;-74
2023/04/22 03:20:39;;;;;;;;;;;;;;;;;;;;;
2023/04/22 03:27:27;;;;;;;;;;;;;;;;;;;;;
2023/04/22 03:29:53;;;;;;;10.90;7.05;;;;;;;;;;5010518;28;20092;-73
2023/04/22 03:33:00;;;;;;;12.02;6.03;;;;;;;;;;5013494;28;20569;-73
2023/04/22 03:35:31;;;;;;;10.77;6.43;;;;;;;;;;5012931;28;20120;-80
2023/04/22 03:42:05;;;;;;;13.70;6.85;;;;;;;;;;4972099;28;20042;-74
2023/04/22 03:44:30;;;;;;;14.90;6.68;;;;;;;;;;4906398;29;20046;-80
2023/04/22 03:46:56;;;;;;;13.60;6.35;;;;;;;;;;5004234;28;20042;-77
2023/04/22 03:49:21;;;;;;;9.65;6.05;;;;;;;;;;5016897;28;20102;-74
2023/04/22 03:51:46;;;;;;;13.63;6.67;;;;;;;;;;5013175;28;20033;-74
2023/04/22 03:54:11;;;;;;;13.35;6.57;;;;;;;;;;5012987;28;20259;-74
2023/04/22 03:56:37;;;;;;;9.83;6.33;;;;;;;;;;5012977;28;20109;-74
2023/04/22 03:59:02;;;;;;;9.73;6.75;;;;;;;;;;5013196;28;20278;-74
2023/04/22 04:01:27;;;;;;;13.07;7.05;;;;;;;;;;5011718;28;20400;-74
2023/04/22 04:06:27;;;;;;;11.05;6.50;;;;;;;;;;4985912;22;20057;-74
2023/04/22 04:08:53;;;;;;;14.25;6.70;;;;;;;;;;5012895;28;20037;-74
2023/04/22 04:11:18;;;;;;;9.57;6.67;;;;;;;;;;5011474;28;20113;-74
2023/04/22 04:13:43;;;;;;;12.85;6.70;;;;;;;;;;5011254;28;20325;-75
2023/04/22 04:16:08;;;;;;;10.07;6.50;;;;;;;;;;5012770;28;20022;-74
2023/04/22 04:18:34;;;;;;;14.55;7.13;;;;;;;;;;5013303;28;20255;-74
2023/04/22 04:20:59;;;;;;;11.33;6.50;;;;;;;;;;5013317;28;20026;-74
2023/04/22 04:23:25;;;;;;;10.47;6.80;;;;;;;;;;5012715;28;20266;-75
2023/04/22 04:25:51;;;;;;;12.10;7.10;;;;;;;;;;5012727;28;20326;-74
2023/04/22 04:28:16;;;;;;;11.77;6.65;;;;;;;;;;5011455;28;20453;-74
2023/04/22 04:30:41;;;;;;;13.07;7.50;;;;;;;;;;5011481;28;20076;-74
2023/04/22 04:33:07;;;;;;;10.95;6.90;;;;;;;;;;5012648;28;20079;-74
2023/04/22 04:35:33;;;;;;;10.45;6.63;;;;;;;;;;5013586;28;20030;-74
2023/04/22 04:37:59;;;;;;;10.02;6.95;;;;;;;;;;5016452;28;20022;-74
2023/04/22 04:40:25;;;;;;;12.20;7.25;;;;;;;;;;5016492;28;20432;-74
2023/04/22 04:42:51;;;;;;;10.23;7.20;;;;;;;;;;5016520;28;20022;-75
2023/04/22 04:45:17;;;;;;;13.43;7.25;;;;;;;;;;5016554;28;20022;-75
2023/04/22 04:47:42;;;;;;;11.73;7.05;;;;;;;;;;5015134;28;20026;-74
2023/04/22 04:50:08;;;;;;;13.50;6.83;;;;;;;;;;5015930;28;20105;-75
2023/04/22 04:52:33;;;;;;;14.80;7.35;;;;;;;;;;5016311;28;20251;-74
2023/04/22 04:54:58;;;;;;;15.07;7.50;;;;;;;;;;5016087;28;20038;-74
2023/04/22 04:57:23;;;;;;;12.93;7.05;;;;;;;;;;5017235;28;20326;-80
2023/04/22 04:59:49;;;;;;;10.60;6.68;;;;;;;;;;5018251;28;20057;-75
2023/04/22 05:02:14;;;;;;;17.05;7.00;;;;;;;;;;5016532;28;20026;-75
2023/04/22 05:04:39;;;;;;;9.20;6.50;;;;;;;;;;5017298;28;20030;-75
2023/04/22 05:07:04;;;;;;;12.90;6.82;;;;;;;;;;5017543;28;20282;-76
2023/04/22 05:09:35;;;;;;;11.43;6.35;;;;;;;;;;5016985;28;20057;-74
2023/04/22 05:12:01;;;;;;;13.18;6.55;;;;;;;;;;5017813;28;20437;-74
2023/04/22 05:14:26;;;;;;;9.70;6.65;;;;;;;;;;5017060;28;20026;-73
2023/04/22 05:16:51;;;;;;;8.57;6.50;;;;;;;;;;5017065;28;20025;-74
2023/04/22 05:19:16;;;;;;;12.45;6.75;;;;;;;;;;5017161;28;20260;-74
2023/04/22 05:21:41;;;;;;;13.33;6.83;;;;;;;;;;5017583;28;20030;-75
2023/04/22 05:24:07;;;;;;;12.87;6.93;;;;;;;;;;5016786;28;20350;-75
2023/04/22 05:26:32;;;;;;;9.70;6.43;;;;;;;;;;5017597;28;20306;-75
2023/04/22 05:28:58;;;;;;;8.73;5.87;;;;;;;;;;5017442;28;20262;-75
2023/04/22 05:31:23;;;;;;;13.68;6.45;;;;;;;;;;5015765;28;20271;-74
2023/04/22 06:24:21;;;;;;;8.35;4.78;;;;;;;;;;5004278;22;20115;-79
2023/04/22 06:26:46;;;;;;;8.60;5.40;;;;;;;;;;5017162;28;20478;-76
2023/04/22 06:29:12;;;;;;;10.43;5.18;;;;;;;;;;5013147;28;20405;-76
2023/04/22 06:31:37;;;;;;;11.70;4.90;;;;;;;;;;5017399;28;20113;-76
2023/04/22 06:34:03;;;;;;;8.67;4.90;;;;;;;;;;5017642;28;20018;-75
2023/04/22 06:36:28;;;;;;;8.50;5.38;;;;;;;;;;5017191;28;20294;-75
2023/04/22 06:38:53;;;;;;;8.30;5.13;;;;;;;;;;5016091;28;20038;-74
2023/04/22 06:41:21;;;;;;;9.45;5.10;;;;;;;;;;5017054;28;20331;-74
2023/04/22 06:43:48;;;;;;;11.07;5.18;;;;;;;;;;5016830;28;20538;-74
2023/04/22 06:46:13;;;;;;;8.05;5.03;;;;;;;;;;5015293;28;20062;-74
2023/04/22 06:48:39;;;;;;;7.55;4.53;;;;;;;;;;5016731;28;20057;-74
2023/04/22 06:51:04;;;;;;;7.85;4.90;;;;;;;;;;5016957;28;20033;-74
2023/04/22 06:53:29;;;;;;;7.90;4.70;;;;;;;;;;5016725;28;20025;-74
2023/04/22 06:55:54;;;;;;;9.83;5.13;;;;;;;;;;5014600;28;20497;-74
2023/04/22 06:58:20;;;;;;;7.63;4.87;;;;;;;;;;5016046;28;20286;-75
2023/04/22 07:00:45;;;;;;;12.20;5.20;;;;;;;;;;5014979;28;20264;-74
2023/04/22 07:03:10;;;;;;;8.90;4.97;;;;;;;;;;5014444;28;20034;-73
2023/04/22 07:05:36;;;;;;;9.83;4.73;;;;;;;;;;5015810;28;20029;-74
2023/04/22 07:08:01;;;;;;;14.90;5.45;;;;;;;;;;5017172;28;20298;-76
2023/04/22 07:10:27;;;;;;;9.82;5.20;;;;;;;;;;5017226;28;20033;-77
2023/04/22 07:12:52;;;;;;;9.93;5.13;;;;;;;;;;5018263;28;20044;-74
2023/04/22 07:15:17;;;;;;;7.22;4.70;;;;;;;;;;5026479;22;20314;-78
2023/04/22 07:17:42;;;;;;;12.27;4.85;;;;;;;;;;5015663;28;20072;-74
2023/04/22 07:20:08;;;;;;;8.00;4.75;;;;;;;;;;5013803;28;20030;-74
2023/04/22 07:22:33;;;;;;;7.18;4.60;;;;;;;;;;5013811;28;20018;-76
2023/04/22 07:24:59;;;;;;;10.47;5.13;;;;;;;;;;5014776;28;20026;-74
2023/04/22 07:27:24;;;;;;;8.33;4.93;;;;;;;;;;5015422;28;20260;-76
2023/04/22 07:29:49;;;;;;;8.75;4.88;;;;;;;;;;5015017;28;20325;-74
2023/04/22 07:32:14;;;;;;;8.73;4.80;;;;;;;;;;5013211;28;20124;-74
2023/04/22 07:34:40;;;;;;;10.23;5.57;;;;;;;;;;5011919;28;20263;-74
2023/04/22 07:37:06;;;;;;;13.93;5.27;;;;;;;;;;5013718;28;20389;-72
2023/04/22 07:39:31;;;;;;;8.98;4.68;;;;;;;;;;5013644;28;20262;-75
2023/04/22 07:41:57;;;;;;;8.63;4.82;;;;;;;;;;5013426;28;20034;-74
2023/04/22 07:44:22;;;;;;;8.50;5.10;;;;;;;;;;5013256;28;20497;-76
2023/04/22 07:46:49;;;;;;;13.15;5.10;;;;;;;;;;5013290;28;20029;-75
2023/04/22 07:49:15;;;;;;;10.55;4.85;;;;;;;;;;5013256;28;20096;-74
2023/04/22 07:51:41;;;;;;;8.05;4.95;;;;;;;;;;5011899;28;20033;-73
2023/04/22 07:54:06;;;;;;;8.90;5.30;;;;;;;;;;5013004;28;20034;-74
2023/04/22 07:56:32;;;;;;;10.55;4.95;;;;;;;;;;5012370;28;20052;-74
2023/04/22 07:58:57;;;;;;;8.88;4.82;;;;;;;;;;5012083;28;20074;-75
2023/04/22 08:01:22;;;;;;;9.73;4.47;;;;;;;;;;5013137;28;20026;-74
2023/04/22 08:03:47;;;;;;;8.47;5.20;;;;;;;;;;5013026;28;20263;-74
2023/04/22 08:06:13;;;;;;;8.53;4.97;;;;;;;;;;5012611;28;20318;-75
2023/04/22 08:08:38;;;;;;;7.82;5.10;;;;;;;;;;5012921;28;20255;-74
2023/04/22 08:11:03;;;;;;;8.18;4.75;;;;;;;;;;5015242;28;20049;-73
2023/04/22 08:13:29;;;;;;;8.50;5.07;;;;;;;;;;5018474;28;20076;-74
2023/04/22 08:15:54;;;;;;;10.57;4.63;;;;;;;;;;5017051;28;20037;-73
2023/04/22 08:18:19;;;;;;;6.18;4.75;;;;;;;;;;5015675;28;20033;-75
2023/04/22 08:20:46;;;;;;;7.03;4.85;;;;;;;;;;5018695;28;20040;-78
2023/04/22 08:23:11;;;;;;;9.63;4.90;;;;;;;;;;5021155;28;20026;-78
2023/04/22 08:25:37;;;;;;;7.13;4.63;;;;;;;;;;5019060;28;20077;-76
2023/04/22 08:28:02;;;;;;;7.65;4.80;;;;;;;;;;5019218;28;20057;-74
2023/04/22 08:30:27;;;;;;;6.63;4.73;;;;;;;;;;5016880;28;20101;-75
2023/04/22 08:32:52;;;;;;;9.93;5.00;;;;;;;;;;5016120;28;20364;-74
2023/04/22 08:35:18;;;;;;;8.50;5.05;;;;;;;;;;5016864;28;20033;-73
2023/04/22 08:37:43;;;;;;;9.68;4.97;;;;;;;;;;5016705;28;20087;-75
2023/04/22 08:40:09;;;;;;;11.52;4.85;;;;;;;;;;5017526;28;20030;-75
2023/04/22 08:42:35;;;;;;;9.65;4.75;;;;;;;;;;5015519;28;20401;-75
2023/04/22 08:45:04;;;;;;;11.73;5.13;;;;;;;;;;5016088;28;20022;-74
2023/04/22 08:47:31;;;;;;;5.43;3.42;;;;;;;;;;5017597;28;20022;-75
2023/04/22 08:49:57;;;;;;;9.30;4.45;;;;;;;;;;5016278;28;20049;-75
2023/04/22 08:52:23;;;;;;;7.20;4.45;;;;;;;;;;5019698;28;20041;-79
2023/04/22 08:54:48;;;;;;;11.45;4.88;;;;;;;;;;5020193;28;20411;-78
2023/04/22 08:57:15;;;;;;;7.93;4.63;;;;;;;;;;5018851;28;20028;-81
2023/04/22 08:59:40;;;;;;;6.30;4.50;;;;;;;;;;5020145;28;20044;-77
2023/04/22 09:02:09;;;;;;;8.60;4.65;;;;;;;;;;5018442;28;20077;-72
2023/04/22 09:04:35;;;;;;;9.25;4.32;;;;;;;;;;5019608;28;20064;-74
2023/04/22 09:07:01;;;;;;;12.98;4.80;;;;;;;;;;5018555;28;20022;-78
2023/04/22 09:09:29;;;;;;;11.35;4.32;;;;;;;;;;5018025;28;20072;-73
2023/04/22 09:11:54;;;;;;;10.15;4.72;;;;;;;;;;5018873;28;20432;-74
2023/04/22 09:14:21;;;;;;;8.38;4.32;;;;;;;;;;5017332;28;20029;-73
2023/04/22 09:16:47;;;;;;;8.90;4.45;;;;;;;;;;5017519;28;20030;-75
2023/04/22 09:19:15;;;;;;;10.93;4.60;;;;;;;;;;5018778;28;20030;-74
2023/04/22 09:21:40;;;;;;;12.35;4.75;;;;;;;;;;5020503;28;20033;-78
2023/04/22 09:24:08;;;;;;;7.20;4.35;;;;;;;;;;5019399;28;20034;-74
2023/04/22 09:26:37;;;;;;;10.30;5.63;;;;;;;;;;5018844;28;20025;-73
2023/04/22 09:29:08;;;;;;;6.03;4.60;;;;;;;;;;5018876;28;20037;-74
2023/04/22 09:31:33;;;;;;;9.30;4.97;;;;;;;;;;5017835;28;20029;-74
2023/04/22 09:33:59;;;;;;;8.50;4.75;;;;;;;;;;5018386;28;20041;-74
2023/04/22 09:36:26;;;;;;;7.43;4.22;;;;;;;;;;5017591;28;20080;-74
2023/04/22 09:38:57;;;;;;;8.07;4.20;;;;;;;;;;5019173;28;20029;-74
2023/04/22 09:41:29;;;;;;;7.32;4.35;;;;;;;;;;5019127;28;20477;-76
2023/04/22 09:43:56;;;;;;;7.47;4.60;;;;;;;;;;5017850;28;20536;-73
2023/04/22 09:46:25;;;;;;;6.18;4.03;;;;;;;;;;5018164;28;20108;-74
2023/04/22 09:48:53;;;;;;;10.60;3.70;;;;;;;;;;5018127;28;20084;-77
2023/04/22 09:51:19;;;;;;;8.85;3.92;;;;;;;;;;5017750;28;20388;-76
2023/04/22 09:53:45;;;;;;;6.97;4.15;;;;;;;;;;5015809;28;20120;-85
2023/04/22 09:56:13;;;;;;;8.63;4.10;;;;;;;;;;5017336;28;20028;-85
2023/04/22 09:58:39;;;;;;;7.43;3.63;;;;;;;;;;5017219;28;20034;-76
2023/04/22 10:01:05;;;;;;;8.65;3.85;;;;;;;;;;5017494;28;20161;-76
2023/04/22 10:03:30;;;;;;;7.63;3.80;;;;;;;;;;5020044;28;20176;-80
2023/04/22 10:05:57;;;;;;;10.40;3.70;;;;;;;;;;5018132;28;20025;-83
2023/04/22 10:08:22;;;;;;;5.60;3.58;;;;;;;;;;5018024;28;20200;-80
2023/04/22 10:10:47;;;;;;;6.43;3.70;;;;;;;;;;5018096;28;20049;-80
2023/04/22 10:13:13;;;;;;;5.68;3.33;;;;;;;;;;5017836;28;20030;-80
2023/04/22 10:15:41;;;;;;;7.07;3.60;;;;;;;;;;5018035;28;20037;-80
2023/04/22 10:18:10;;;;;;;7.93;3.60;;;;;;;;;;5018179;28;20314;-80
2023/04/22 10:20:37;;;;;;;9.73;3.53;;;;;;;;;;5016677;28;20424;-75
2023/04/22 10:23:05;;;;;;;9.23;4.10;;;;;;;;;;5016900;28;20026;-75
2023/04/22 10:25:30;;;;;;;7.57;3.30;;;;;;;;;;5016990;28;20033;-75
2023/04/22 10:28:03;;;;;;;8.85;3.60;;;;;;;;;;5016588;28;20030;-75
2023/04/22 10:30:31;;;;;;;6.93;3.85;;;;;;;;;;5017120;28;20029;-76
2023/04/22 10:33:20;;;;;;;10.38;3.47;;;;;;;;;;5016873;28;20026;-79
2023/04/22 10:36:08;;;;;;;5.65;3.30;;;;;;;;;;5011649;28;20159;-79
2023/04/22 10:38:35;;;;;;;7.65;3.47;;;;;;;;;;5024539;28;20026;-79
2023/04/22 10:41:02;;;;;;;8.35;3.47;;;;;;;;;;5023772;28;20026;-78
2023/04/22 10:43:57;;;;;;;11.48;3.80;;;;;;;;;;5023247;28;20022;-80
2023/04/22 10:46:38;;;;;;;7.70;3.67;;;;;;;;;;5022399;28;20028;-81
2023/04/22 10:49:19;;;;;;;7.80;3.25;;;;;;;;;;5024327;28;20022;-78
2023/04/22 10:51:46;;;;;;;9.98;3.38;;;;;;;;;;5013955;28;20028;-73
2023/04/22 10:57:07;;;;;;;6.53;3.20;;;;;;;;;;5021438;28;20030;-75
2023/04/22 10:59:54;;;;;;;9.05;3.65;;;;;;;;;;5023101;28;20030;-78
2023/04/22 11:02:23;;;;;;;6.13;3.58;;;;;;;;;;5028791;28;20038;-80
2023/04/22 11:04:49;;;;;;;5.90;3.20;;;;;;;;;;5022242;28;20081;-80
2023/04/22 11:07:19;;;;;;;11.52;3.63;;;;;;;;;;5027892;28;20036;-79
2023/04/22 11:09:48;;;;;;;10.15;3.80;;;;;;;;;;5025907;28;20028;-80
2023/04/22 11:12:40;;;;;;;7.53;3.45;;;;;;;;;;5025096;28;20021;-80
2023/04/22 11:15:14;;;;;;;9.57;3.30;;;;;;;;;;5023289;28;20026;-81
2023/04/22 11:17:44;;;;;;;6.60;3.40;;;;;;;;;;5016643;28;20025;-74
2023/04/22 11:20:16;;;;;;;10.82;3.45;;;;;;;;;;5012443;28;20022;-74
2023/04/22 11:22:43;;;;;;;5.63;3.40;;;;;;;;;;5013741;28;20026;-74
2023/04/22 11:25:09;;;;;;;8.07;3.67;;;;;;;;;;5012184;28;20029;-73
2023/04/22 11:27:35;;;;;;;5.90;3.47;;;;;;;;;;5013841;28;20026;-74
2023/04/22 11:30:03;;;;;;;8.73;3.67;;;;;;;;;;5013475;28;20026;-75
2023/04/22 11:32:29;;;;;;;5.75;3.40;;;;;;;;;;5013662;28;20029;-73
2023/04/22 11:34:54;;;;;;;7.43;2.95;;;;;;;;;;5013452;28;20032;-74
2023/04/22 11:37:20;;;;;;;5.22;3.20;;;;;;;;;;5013387;28;20037;-75
2023/04/22 11:39:50;;;;;;;5.47;3.05;;;;;;;;;;5013433;28;20536;-74
2023/04/22 11:42:20;;;;;;;6.07;3.08;;;;;;;;;;5012285;28;20032;-75
2023/04/22 11:44:45;;;;;;;7.47;3.33;;;;;;;;;;5012422;28;20396;-74
2023/04/22 11:47:14;;;;;;;9.63;3.53;;;;;;;;;;5012270;28;20013;-75
2023/04/22 11:49:39;;;;;;;6.40;3.10;;;;;;;;;;5015274;28;20058;-79
2023/04/22 11:52:04;;;;;;;6.57;3.20;;;;;;;;;;5019133;28;20037;-78
2023/04/22 11:54:34;;;;;;;5.03;2.77;;;;;;;;;;5015646;28;20082;-74
2023/04/22 11:57:07;;;;;;;7.00;3.58;;;;;;;;;;5013724;28;20275;-74
2023/04/22 11:59:33;;;;;;;5.78;3.40;;;;;;;;;;5013127;28;20097;-76
2023/04/22 12:01:59;;;;;;;5.88;3.13;;;;;;;;;;5014880;28;20049;-75
2023/04/22 12:04:24;;;;;;;6.93;3.40;;;;;;;;;;5014889;28;20030;-75
2023/04/22 12:06:53;;;;;;;6.80;3.27;;;;;;;;;;5014489;28;20465;-75
2023/04/22 12:09:18;;;;;;;7.40;3.35;;;;;;;;;;5014887;28;20762;-74
2023/04/22 12:11:44;;;;;;;7.10;3.38;;;;;;;;;;5015383;28;20040;-74
2023/04/22 12:14:10;;;;;;;6.40;2.95;;;;;;;;;;5015703;28;20490;-74
2023/04/22 12:16:40;;;;;;;8.30;3.70;;;;;;;;;;5014553;28;20061;-76
2023/04/22 12:19:05;;;;;;;7.32;2.97;;;;;;;;;;5013402;28;20093;-75
2023/04/22 12:21:31;;;;;;;7.30;3.60;;;;;;;;;;5014674;28;20076;-75
2023/04/22 12:24:09;;;;;;;8.60;3.17;;;;;;;;;;5015132;28;20022;-74
2023/04/22 12:26:35;;;;;;;6.00;3.38;;;;;;;;;;5015429;28;20029;-75
2023/04/22 12:29:01;;;;;;;6.78;3.40;;;;;;;;;;5014099;28;20076;-75
2023/04/22 12:31:28;;;;;;;6.47;3.37;;;;;;;;;;5014593;28;20389;-75
2023/04/22 12:33:54;;;;;;;7.72;3.47;;;;;;;;;;5013208;28;20255;-75
2023/04/22 12:36:22;;;;;;;5.28;3.08;;;;;;;;;;5014009;28;20505;-76
2023/04/22 12:38:48;;;;;;;6.82;3.10;;;;;;;;;;5014409;28;20034;-74
2023/04/22 12:41:17;;;;;;;9.27;3.92;;;;;;;;;;5014481;28;20030;-75
2023/04/22 12:43:42;;;;;;;5.43;3.20;;;;;;;;;;5012989;28;20121;-73
2023/04/22 12:46:08;;;;;;;4.85;3.03;;;;;;;;;;5012991;28;20489;-75
2023/04/22 12:48:35;;;;;;;6.22;3.15;;;;;;;;;;5013961;28;20040;-74
2023/04/22 12:51:07;;;;;;;5.30;3.05;;;;;;;;;;5014191;28;20076;-76
2023/04/22 12:53:32;;;;;;;4.38;3.10;;;;;;;;;;5013100;28;20025;-74
2023/04/22 12:55:57;;;;;;;10.32;3.25;;;;;;;;;;5014513;28;20030;-75
2023/04/22 12:58:23;;;;;;;10.70;3.70;;;;;;;;;;5019303;28;20077;-74
2023/04/22 13:00:48;;;;;;;9.82;3.42;;;;;;;;;;5018207;28;20525;-77
2023/04/22 13:03:14;;;;;;;6.07;2.80;;;;;;;;;;5017305;28;20497;-75
2023/04/22 13:05:39;;;;;;;7.50;3.00;;;;;;;;;;5018517;28;20485;-75
2023/04/22 13:08:05;;;;;;;4.38;3.05;;;;;;;;;;5018358;28;20413;-75
2023/04/22 13:10:30;;;;;;;4.55;2.97;;;;;;;;;;5018407;28;20053;-75
2023/04/22 13:13:01;;;;;;;6.57;2.90;;;;;;;;;;5017388;28;20117;-74
2023/04/22 13:15:28;;;;;;;7.80;3.50;;;;;;;;;;5017265;28;20029;-76
2023/04/22 13:17:56;;;;;;;4.90;2.90;;;;;;;;;;5019230;28;20104;-75
2023/04/22 13:20:21;;;;;;;5.28;3.05;;;;;;;;;;5017365;28;20053;-75
2023/04/22 13:22:47;;;;;;;5.90;3.00;;;;;;;;;;5017807;28;20026;-75
2023/04/22 13:25:12;;;;;;;8.38;2.80;;;;;;;;;;5017832;28;20325;-74
2023/04/22 13:27:38;;;;;;;6.18;3.40;;;;;;;;;;5017063;28;20072;-75
2023/04/22 13:30:06;;;;;;;5.82;3.13;;;;;;;;;;5017430;28;20054;-75
2023/04/22 13:32:31;;;;;;;5.68;3.30;;;;;;;;;;5017903;28;20018;-75
2023/04/22 13:34:56;;;;;;;7.03;3.22;;;;;;;;;;5017665;28;20025;-74
2023/04/22 13:37:22;;;;;;;8.63;3.10;;;;;;;;;;5018683;28;20116;-74
2023/04/22 13:39:48;;;;;;;4.55;2.95;;;;;;;;;;5018203;28;20290;-74
2023/04/22 13:42:14;;;;;;;7.30;3.63;;;;;;;;;;5017908;28;20103;-74
2023/04/22 13:44:39;;;;;;;6.95;3.15;;;;;;;;;;5017834;28;20034;-75
2023/04/22 13:47:04;;;;;;;6.63;3.40;;;;;;;;;;5018080;28;20030;-75
2023/04/22 13:49:30;;;;;;;7.05;3.15;;;;;;;;;;5016002;28;20021;-75
2023/04/22 13:51:55;;;;;;;8.10;3.35;;;;;;;;;;5017693;28;20022;-77
2023/04/22 13:54:21;;;;;;;6.68;3.50;;;;;;;;;;5017442;28;20022;-75
2023/04/22 13:56:47;;;;;;;8.15;2.92;;;;;;;;;;5016585;28;20033;-76
2023/04/22 13:59:12;;;;;;;3.42;2.83;;;;;;;;;;5018367;28;20034;-82
2023/04/22 14:01:38;;;;;;;6.73;3.13;;;;;;;;;;5018676;28;20082;-75
2023/04/22 14:04:03;;;;;;;6.50;3.50;;;;;;;;;;5017089;28;20279;-81
2023/04/22 14:06:29;;;;;;;5.18;3.28;;;;;;;;;;5016787;28;20103;-81
2023/04/22 14:08:54;;;;;;;7.65;3.00;;;;;;;;;;5016964;28;20030;-81
2023/04/22 14:11:19;;;;;;;6.18;3.25;;;;;;;;;;5017542;28;20089;-77
2023/04/22 14:13:46;;;;;;;8.67;2.90;;;;;;;;;;5016260;28;20029;-74
2023/04/22 14:16:12;;;;;;;6.57;3.13;;;;;;;;;;5016083;28;20343;-78
2023/04/22 14:18:39;;;;;;;10.23;3.10;;;;;;;;;;5020937;28;20057;-81
2023/04/22 14:21:15;;;;;;;7.60;3.30;;;;;;;;;;5026310;28;20025;-80
2023/04/22 14:23:50;;;;;;;4.75;2.83;;;;;;;;;;5019116;28;20021;-84
2023/04/22 14:26:18;;;;;;;5.43;2.90;;;;;;;;;;5018830;28;20022;-81
2023/04/22 14:28:43;;;;;;;5.78;3.30;;;;;;;;;;5017683;28;20378;-84
2023/04/22 14:31:09;;;;;;;7.73;3.50;;;;;;;;;;5020551;28;20064;-83
2023/04/22 14:33:34;;;;;;;7.90;3.10;;;;;;;;;;5022051;28;20575;-78
2023/04/22 14:36:00;;;;;;;9.32;3.45;;;;;;;;;;5017353;28;20096;-74
2023/04/22 14:38:25;;;;;;;4.77;3.03;;;;;;;;;;5016224;28;20029;-84
2023/04/22 14:40:50;;;;;;;5.93;3.28;;;;;;;;;;5018345;28;20266;-77
2023/04/22 14:43:17;;;;;;;8.40;3.15;;;;;;;;;;5014935;28;20022;-74
2023/04/22 14:45:43;;;;;;;4.90;3.08;;;;;;;;;;5015416;28;20034;-77
2023/04/22 14:48:08;;;;;;;4.43;2.97;;;;;;;;;;5016729;28;20021;-75
2023/04/22 14:50:33;;;;;;;13.63;3.53;;;;;;;;;;5016062;28;20038;-75
2023/04/22 14:52:59;;;;;;;10.68;6.40;;;;;;;;;;5016040;28;20076;-76
2023/04/22 14:55:25;;;;;;;10.65;4.75;;;;;;;;;;5015568;28;20395;-76
2023/04/22 14:57:55;;;;;;;10.38;3.90;;;;;;;;;;5015087;28;20401;-75
2023/04/22 15:00:20;;;;;;;7.05;3.90;;;;;;;;;;5014863;28;20033;-76
2023/04/22 15:02:45;;;;;;;8.27;3.53;;;;;;;;;;5015344;28;20026;-75
2023/04/22 15:05:11;;;;;;;7.03;3.57;;;;;;;;;;5015017;28;20789;-74
2023/04/22 15:07:36;;;;;;;7.63;2.87;;;;;;;;;;5014839;28;20643;-76
2023/04/22 15:10:01;;;;;;;7.07;3.40;;;;;;;;;;5014190;28;20603;-75
2023/04/22 15:12:27;;;;;;;7.05;3.17;;;;;;;;;;5014911;28;20627;-75
2023/04/22 15:14:53;;;;;;;7.85;3.30;;;;;;;;;;5014698;28;20042;-75
2023/04/22 15:17:24;;;;;;;7.88;4.30;;;;;;;;;;5014895;28;20022;-85
2023/04/22 15:19:52;;;;;;;5.95;3.33;;;;;;;;;;5015073;28;20026;-76
2023/04/22 15:22:17;;;;;;;7.60;3.50;;;;;;;;;;5013940;28;20029;-76
2023/04/22 15:24:42;;;;;;;9.18;3.50;;;;;;;;;;5013544;28;20034;-77
2023/04/22 15:27:31;;;;;;;10.80;3.90;;;;;;;;;;5013877;28;20022;-77
2023/04/22 15:29:56;;;;;;;11.00;5.10;;;;;;;;;;5012478;28;20310;-76
2023/04/22 15:32:21;;;;;;;5.90;3.50;;;;;;;;;;5013821;28;20045;-75
2023/04/22 15:34:47;;;;;;;6.90;3.65;;;;;;;;;;5013507;28;20271;-81
2023/04/22 15:37:13;;;;;;;8.45;3.55;;;;;;;;;;5019525;28;20030;-81
2023/04/22 15:39:59;;;;;;;8.75;4.25;;;;;;;;;;5016848;28;20387;-83
2023/04/22 15:42:24;;;;;;;5.80;3.90;;;;;;;;;;5016236;28;20041;-81
2023/04/22 15:44:49;;;;;;;9.23;3.90;;;;;;;;;;5015607;28;20022;-82
2023/04/22 15:47:16;;;;;;;6.15;3.45;;;;;;;;;;5015267;28;20022;-76
2023/04/22 15:49:41;;;;;;;9.05;3.53;;;;;;;;;;5014399;28;20026;-79
2023/04/22 15:52:07;;;;;;;7.45;3.58;;;;;;;;;;5015118;28;20026;-83
2023/04/22 15:54:32;;;;;;;6.40;3.55;;;;;;;;;;5014608;28;20064;-83
2023/04/22 15:56:57;;;;;;;8.23;3.80;;;;;;;;;;5016117;28;20050;-80
2023/04/22 15:59:22;;;;;;;5.15;3.58;;;;;;;;;;5017966;28;20034;-83
2023/04/22 16:01:48;;;;;;;8.10;3.70;;;;;;;;;;5015517;28;20022;-77
2023/04/22 16:04:13;;;;;;;7.05;3.58;;;;;;;;;;5014733;28;20025;-74
2023/04/22 16:06:41;;;;;;;8.20;4.13;;;;;;;;;;5013893;28;20104;-74
2023/04/22 16:09:06;;;;;;;8.43;3.80;;;;;;;;;;5013026;28;20120;-75
2023/04/22 16:11:32;;;;;;;6.43;4.07;;;;;;;;;;5013126;28;20525;-73
2023/04/22 16:13:57;;;;;;;10.00;3.85;;;;;;;;;;5013039;28;20141;-75
2023/04/22 16:16:25;;;;;;;8.53;4.07;;;;;;;;;;5013016;28;20030;-73
2023/04/22 16:18:50;;;;;;;8.95;4.05;;;;;;;;;;5013249;28;20270;-75
2023/04/22 16:21:18;;;;;;;9.80;5.07;;;;;;;;;;5020724;28;20022;-80
2023/04/22 16:23:44;;;;;;;13.18;4.80;;;;;;;;;;5017283;28;20030;-83
2023/04/22 16:26:10;;;;;;;8.35;5.05;;;;;;;;;;5017535;28;20054;-79
2023/04/22 16:28:35;;;;;;;11.63;6.10;;;;;;;;;;5015794;28;20026;-80
2023/04/22 16:31:01;;;;;;;10.15;5.40;;;;;;;;;;5014170;28;20030;-79
2023/04/22 16:33:26;;;;;;;13.60;5.10;;;;;;;;;;5019293;28;20429;-81
2023/04/22 16:35:52;;;;;;;8.77;4.80;;;;;;;;;;5018617;28;20482;-75
2023/04/22 16:38:17;;;;;;;10.90;5.27;;;;;;;;;;5017515;28;20021;-74
2023/04/22 16:40:42;;;;;;;18.75;10.23;;;;;;;;;;5018185;28;20263;-75
2023/04/22 16:43:08;;;;;;;13.70;7.63;;;;;;;;;;5017978;28;20033;-75
2023/04/22 16:45:33;;;;;;;16.27;8.77;;;;;;;;;;5016627;28;20263;-76
2023/04/22 16:47:58;;;;;;;7.53;4.50;;;;;;;;;;5017341;28;20033;-75
2023/04/22 16:50:24;;;;;;;14.83;5.30;;;;;;;;;;5016377;28;20033;-75
2023/04/22 16:52:49;;;;;;;11.82;5.03;;;;;;;;;;5018776;28;20263;-75
2023/04/22 16:55:14;;;;;;;11.43;5.18;;;;;;;;;;5017021;28;20540;-75
2023/04/22 16:57:40;;;;;;;5.85;4.68;;;;;;;;;;5016880;28;20064;-75
2023/04/22 17:00:06;;;;;;;11.02;5.35;;;;;;;;;;5016044;28;20441;-75
2023/04/22 17:02:32;;;;;;;9.85;5.25;;;;;;;;;;5015491;28;20022;-75
2023/04/22 17:04:57;;;;;;;9.60;5.05;;;;;;;;;;5017485;28;20088;-75
2023/04/22 17:07:22;;;;;;;9.55;4.97;;;;;;;;;;5017013;28;20028;-74
2023/04/22 17:09:47;;;;;;;7.40;4.50;;;;;;;;;;5015118;28;20486;-74
2023/04/22 17:12:13;;;;;;;8.90;5.00;;;;;;;;;;5016446;28;20611;-72
2023/04/22 17:14:41;;;;;;;12.90;5.35;;;;;;;;;;5016472;28;20664;-74
2023/04/22 17:17:06;;;;;;;13.18;5.00;;;;;;;;;;5016311;28;20030;-73
2023/04/22 17:19:32;;;;;;;8.50;5.00;;;;;;;;;;5016222;28;20026;-74
2023/04/22 17:21:57;;;;;;;8.87;4.77;;;;;;;;;;5016207;28;20347;-75
2023/04/22 17:24:23;;;;;;;8.52;4.70;;;;;;;;;;5016471;28;20291;-74
2023/04/22 17:26:48;;;;;;;7.70;4.70;;;;;;;;;;5016213;28;20046;-73
2023/04/22 17:29:14;;;;;;;9.87;5.23;;;;;;;;;;5016102;28;20550;-75
2023/04/22 17:31:39;;;;;;;8.40;4.75;;;;;;;;;;5016040;28;20754;-75
2023/04/22 17:34:04;;;;;;;12.90;5.20;;;;;;;;;;5016345;28;20022;-74
2023/04/22 17:36:30;;;;;;;8.73;5.38;;;;;;;;;;5015339;28;20488;-75
2023/04/22 17:38:55;;;;;;;15.57;5.20;;;;;;;;;;5016637;28;20076;-75